ポンタ・デルガダ の空港の天気 - METARとTAF

ポンタ・デルガダ空港 ( LPPD / PDL ) - ポルトガル ポンタ・デルガダ (サンミゲル島)
飛行場実況気象(Metar)
観測時間11/30 09:30 AZOT (11/30 10:30 UTC)
風向・風速北北東 11m/s 瞬間風速17m/s
視程10km以上
天気現象周辺でしゅう雨
少しの雲 雲底高度 550m
少しの雲 雲底高度 610m
気温15℃
湿度77%
気圧1015hPa
METARLPPD 301030Z 03022G34KT 9999 VCSH FEW018 FEW020TCU 15/11 Q1015
過去の天気等 Google飛行場航空写真 Wunderground天気予報

過去48時間のMETAR

飛行場予報(TAF)
発表時間: 11/30 04:00 AZOT (11/30 05:00 UTC)
予報対象時間: 30日5時 AZOT ~ 1日5時 AZOT
風向・風速北北東 10m/s 瞬間風速 16m/s
視程10km以上
全天の4割程度の雲 雲底高度 610m
30日5時 AZOT ~ 1日5時 AZOT に一時的に
風向・風速北北東 13m/s 瞬間風速 19m/s
視程8000m
天気現象しゅう雨
全天の4割程度の雲 雲底高度 240m
全天の8割程度の雲 雲底高度 550m
少しの塔状積雲 雲底高度 610m
TAF LPPD 300500Z 3006/0106 02020G32KT 9999 SCT020
TEMPO 3006/0106 03025G37KT 8000 SHRA SCT008 BKN018 FEW020TCU